Time;durP1;ratioP1;P1;durP2;ratioP2;P2;SDS_P1;SDS_P2;PMS_P1;PMS_P2;Temp;Humidity;BMP_temperature;BMP_pressure;BME280_temperature;BME280_humidity;BME280_pressure;Samples;Min_cycle;Max_cycle;Signal;HPM_P1;HPM_P2
2024/04/17 00:01:49;;;;;;;5.65;1.98;;;7.70;99.90;;;;;;5454479;26;20014;-84
2024/04/17 00:04:14;;;;;;;5.32;1.90;;;7.70;99.90;;;;;;5424577;26;20009;-84
2024/04/17 00:06:40;;;;;;;5.15;1.88;;;7.60;99.90;;;;;;5455877;26;20434;-84
2024/04/17 00:09:06;;;;;;;5.10;1.75;;;7.60;99.90;;;;;;5424050;26;19990;-84
2024/04/17 00:11:31;;;;;;;4.78;1.98;;;7.60;99.90;;;;;;5454264;26;20006;-85
2024/04/17 00:13:57;;;;;;;4.97;2.33;;;7.50;99.90;;;;;;5454472;26;19998;-85
2024/04/17 00:16:23;;;;;;;5.95;1.83;;;7.50;99.90;;;;;;5454635;26;19999;-85
2024/04/17 00:18:48;;;;;;;7.47;2.28;;;7.50;99.90;;;;;;5453829;26;20405;-86
2024/04/17 00:21:14;;;;;;;5.93;2.03;;;7.50;99.90;;;;;;5454805;26;20006;-85
2024/04/17 00:23:39;;;;;;;5.15;1.77;;;7.40;99.90;;;;;;5454029;26;19994;-86
2024/04/17 00:26:05;;;;;;;6.32;2.05;;;7.40;99.90;;;;;;5424424;26;19995;-85
2024/04/17 00:28:34;;;;;;;5.93;2.13;;;7.40;99.90;;;;;;5394570;26;19991;-85
2024/04/17 00:31:02;;;;;;;4.40;1.75;;;7.40;99.90;;;;;;5424642;26;19999;-84
2024/04/17 00:33:28;;;;;;;5.45;2.30;;;7.30;99.90;;;;;;5424864;26;19999;-85
2024/04/17 00:35:53;;;;;;;8.02;2.13;;;7.20;99.90;;;;;;5424282;26;19998;-84
2024/04/17 00:38:19;;;;;;;5.13;1.88;;;7.10;99.90;;;;;;5424501;26;20006;-84
2024/04/17 00:40:45;;;;;;;4.90;1.80;;;7.10;99.90;;;;;;5455728;26;20414;-85
2024/04/17 00:43:10;;;;;;;4.85;1.60;;;7.10;99.90;;;;;;5448212;26;20014;-85
2024/04/17 00:45:41;;;;;;;5.72;2.00;;;7.00;99.90;;;;;;5446058;26;20040;-86
2024/04/17 00:48:12;;;;;;;5.38;1.98;;;7.00;99.90;;;;;;5442989;26;20009;-86
2024/04/17 00:50:43;;;;;;;6.20;2.33;;;7.00;99.90;;;;;;5461109;26;19994;-86
2024/04/17 00:53:10;;;;;;;4.55;2.10;;;6.90;99.90;;;;;;5457295;26;20001;-86
2024/04/17 00:55:37;;;;;;;5.80;2.03;;;6.90;99.90;;;;;;5455054;26;19998;-86
2024/04/17 00:58:04;;;;;;;5.07;1.92;;;6.80;99.90;;;;;;5455267;26;20704;-86
2024/04/17 01:00:34;;;;;;;7.18;2.05;;;6.80;99.90;;;;;;5457166;26;19998;-87
2024/04/17 01:03:03;;;;;;;4.85;2.15;;;6.70;99.90;;;;;;5455504;26;19998;-85
2024/04/17 01:05:31;;;;;;;6.72;1.77;;;6.70;99.90;;;;;;5455462;26;20006;-85
2024/04/17 01:07:57;;;;;;;4.63;1.70;;;6.70;99.90;;;;;;5455548;26;20023;-85
2024/04/17 01:10:25;;;;;;;5.07;1.88;;;6.60;99.90;;;;;;5454891;26;20003;-86
2024/04/17 01:12:54;;;;;;;4.80;1.70;;;6.60;99.90;;;;;;5457350;26;19999;-86
2024/04/17 01:15:23;;;;;;;5.50;1.90;;;6.60;99.90;;;;;;5455731;26;19999;-85
2024/04/17 01:17:52;;;;;;;7.32;2.35;;;6.50;99.90;;;;;;5456135;26;20316;-85
2024/04/17 01:20:18;;;;;;;7.38;1.90;;;6.60;99.90;;;;;;5456922;26;19990;-86
2024/04/17 01:22:44;;;;;;;6.57;2.10;;;6.50;99.90;;;;;;5436805;26;20006;-87
2024/04/17 01:25:09;;;;;;;4.38;2.00;;;6.50;99.90;;;;;;5477134;26;20067;-85
2024/04/17 01:27:39;;;;;;;4.22;2.00;;;6.50;99.90;;;;;;5475552;26;19991;-87
2024/04/17 01:30:05;;;;;;;5.45;1.70;;;6.50;99.90;;;;;;5439775;26;20002;-86
2024/04/17 01:32:31;;;;;;;5.53;1.92;;;6.50;99.90;;;;;;5457436;26;19999;-87
2024/04/17 01:35:00;;;;;;;6.78;2.17;;;6.50;99.90;;;;;;5455158;26;20309;-84
2024/04/17 01:37:25;;;;;;;4.97;1.70;;;6.50;99.90;;;;;;5425849;26;19991;-85
2024/04/17 01:39:53;;;;;;;3.35;2.03;;;6.50;99.90;;;;;;5454834;26;19995;-86
2024/04/17 01:42:19;;;;;;;3.70;1.90;;;6.40;99.90;;;;;;5454757;26;20490;-86
2024/04/17 01:44:45;;;;;;;5.72;1.92;;;6.40;99.90;;;;;;5454308;26;20308;-85
2024/04/17 01:47:14;;;;;;;7.35;2.20;;;6.40;99.90;;;;;;5423407;26;20063;-85
2024/04/17 01:49:40;;;;;;;3.85;2.03;;;6.30;99.90;;;;;;5454283;26;20027;-85
2024/04/17 01:52:06;;;;;;;5.10;2.20;;;6.30;99.90;;;;;;5455764;26;20339;-85
2024/04/17 01:54:32;;;;;;;4.00;2.00;;;6.30;99.90;;;;;;5454479;26;20469;-86
2024/04/17 01:56:58;;;;;;;10.52;2.47;;;6.30;99.90;;;;;;5456964;26;20003;-86
2024/04/17 01:59:24;;;;;;;5.00;2.05;;;6.30;99.90;;;;;;5456990;26;20007;-86
2024/04/17 02:01:56;;;;;;;4.68;2.17;;;6.30;99.90;;;;;;5455535;26;20067;-86
2024/04/17 02:04:22;;;;;;;5.65;1.92;;;6.30;99.90;;;;;;5469474;26;20038;-84
2024/04/17 02:06:48;;;;;;;5.85;2.08;;;6.40;99.90;;;;;;5477068;26;19987;-85
2024/04/17 02:09:13;;;;;;;4.10;1.70;;;6.30;99.90;;;;;;5477303;26;20066;-87
2024/04/17 02:11:39;;;;;;;9.02;2.20;;;6.30;99.90;;;;;;5435682;26;19999;-84
2024/04/17 02:14:05;;;;;;;7.28;2.30;;;6.30;99.90;;;;;;5461977;26;20437;-85
2024/04/17 02:16:34;;;;;;;6.13;2.00;;;6.40;99.90;;;;;;5454449;26;19995;-84
2024/04/17 02:19:01;;;;;;;6.72;1.60;;;6.30;99.90;;;;;;5453957;26;19990;-86
2024/04/17 02:21:27;;;;;;;3.53;1.90;;;6.30;99.90;;;;;;5455585;26;20451;-87
2024/04/17 02:23:53;;;;;;;3.50;1.80;;;6.30;99.90;;;;;;5453787;26;20002;-85
2024/04/17 02:26:22;;;;;;;9.63;2.20;;;6.30;99.90;;;;;;5457906;26;19994;-87
2024/04/17 02:28:47;;;;;;;4.38;1.70;;;6.30;99.90;;;;;;5457303;26;19986;-86
2024/04/17 02:31:13;;;;;;;3.47;1.50;;;6.30;99.90;;;;;;5453666;26;20003;-87
2024/04/17 02:33:39;;;;;;;4.90;1.98;;;6.20;99.90;;;;;;5453418;26;20081;-85
2024/04/17 02:36:05;;;;;;;5.43;1.83;;;6.30;99.90;;;;;;5453943;26;19999;-85
2024/04/17 02:38:33;;;;;;;6.88;2.08;;;6.30;99.90;;;;;;5456582;26;19995;-86
2024/04/17 02:40:58;;;;;;;3.65;1.58;;;6.40;99.90;;;;;;5454344;26;20443;-86
2024/04/17 02:43:24;;;;;;;3.92;1.70;;;6.40;99.90;;;;;;5453951;26;20014;-84
2024/04/17 02:45:50;;;;;;;6.68;2.13;;;6.40;99.90;;;;;;5454179;26;20003;-85
2024/04/17 02:48:16;;;;;;;5.13;1.63;;;6.40;99.90;;;;;;5426670;26;19990;-86
2024/04/17 02:50:45;;;;;;;5.95;1.77;;;6.50;99.90;;;;;;5424365;26;20002;-86
2024/04/17 02:53:13;;;;;;;3.45;1.73;;;6.50;99.90;;;;;;5454464;26;19986;-85
2024/04/17 02:55:39;;;;;;;5.78;1.90;;;6.50;99.90;;;;;;5456120;26;20002;-85
2024/04/17 02:58:05;;;;;;;4.20;1.85;;;6.50;99.90;;;;;;5453608;26;19990;-87
2024/04/17 03:00:35;;;;;;;4.75;1.60;;;6.50;99.90;;;;;;5423474;26;19999;-86
2024/04/17 03:03:04;;;;;;;7.18;2.05;;;6.60;99.90;;;;;;5455550;26;20006;-86
2024/04/17 03:05:33;;;;;;;3.83;1.42;;;6.60;99.90;;;;;;5453326;26;20001;-86
2024/04/17 03:07:59;;;;;;;3.30;1.58;;;6.70;99.90;;;;;;5453852;26;19995;-86
2024/04/17 03:10:25;;;;;;;4.95;2.03;;;6.70;99.90;;;;;;5424182;26;20373;-85
2024/04/17 03:12:51;;;;;;;4.20;1.65;;;6.80;99.90;;;;;;5455466;26;19998;-87
2024/04/17 03:15:17;;;;;;;5.00;2.05;;;6.80;99.90;;;;;;5453336;26;19994;-87
2024/04/17 03:17:45;;;;;;;5.72;1.80;;;6.90;99.90;;;;;;5453381;26;20006;-86
2024/04/17 03:20:16;;;;;;;5.20;1.83;;;6.90;99.90;;;;;;5453286;26;19987;-85
2024/04/17 03:22:45;;;;;;;4.00;1.80;;;7.00;99.90;;;;;;5454058;26;19991;-86
2024/04/17 03:25:13;;;;;;;3.33;1.75;;;7.00;99.90;;;;;;5454281;26;20044;-86
2024/04/17 03:27:39;;;;;;;3.25;1.60;;;7.00;99.90;;;;;;5424681;26;20002;-85
2024/04/17 03:30:11;;;;;;;4.78;1.67;;;7.00;99.90;;;;;;5467137;26;20009;-85
2024/04/17 03:32:39;;;;;;;3.58;1.60;;;7.10;99.90;;;;;;5475164;26;19989;-87
2024/04/17 03:35:07;;;;;;;3.58;1.70;;;7.10;99.90;;;;;;5475765;26;19979;-87
2024/04/17 03:37:36;;;;;;;3.28;1.42;;;7.20;99.90;;;;;;5472818;26;19998;-87
2024/04/17 03:40:04;;;;;;;5.07;1.23;;;7.20;99.90;;;;;;5453562;26;20022;-88
2024/04/17 03:42:34;;;;;;;4.88;1.45;;;7.20;99.90;;;;;;5422825;26;19991;-84
2024/04/17 03:45:02;;;;;;;5.50;1.70;;;7.20;99.90;;;;;;5452274;26;20442;-85
2024/04/17 03:47:31;;;;;;;4.38;1.60;;;7.30;99.90;;;;;;5451983;26;20411;-86
2024/04/17 03:50:06;;;;;;;4.05;1.90;;;7.30;99.90;;;;;;5394060;26;19998;-86
2024/04/17 03:52:34;;;;;;;3.90;1.63;;;7.30;99.90;;;;;;5452783;26;20423;-86
2024/04/17 03:55:02;;;;;;;3.10;1.73;;;7.40;99.90;;;;;;5452404;26;19997;-85
2024/04/17 03:57:28;;;;;;;6.57;2.10;;;7.40;99.90;;;;;;5453147;26;20003;-85
2024/04/17 03:59:57;;;;;;;4.20;1.50;;;7.50;99.90;;;;;;5452057;26;20375;-84
2024/04/17 04:02:23;;;;;;;3.70;1.67;;;7.50;99.90;;;;;;5451901;26;19991;-85
2024/04/17 04:04:49;;;;;;;6.20;1.85;;;7.60;99.90;;;;;;5454792;26;19999;-86
2024/04/17 04:07:15;;;;;;;4.13;1.70;;;7.60;99.90;;;;;;5452693;26;19990;-86
2024/04/17 04:09:48;;;;;;;4.80;1.60;;;7.60;99.90;;;;;;5453550;26;19991;-88
2024/04/17 04:12:14;;;;;;;4.63;1.75;;;7.70;99.90;;;;;;5429865;26;20411;-89
2024/04/17 04:14:42;;;;;;;3.88;1.58;;;7.70;99.90;;;;;;5457980;26;19990;-86
2024/04/17 04:17:14;;;;;;;3.13;1.30;;;7.70;99.90;;;;;;5466859;26;20040;-86
2024/04/17 04:19:40;;;;;;;2.67;1.48;;;7.80;99.90;;;;;;5472791;26;19994;-85
2024/04/17 04:22:09;;;;;;;4.70;1.25;;;7.80;99.90;;;;;;5473276;26;20032;-86
2024/04/17 04:25:02;;;;;;;1.90;1.05;;;7.80;99.90;;;;;;5470659;26;19991;-93
2024/04/17 04:27:31;;;;;;;3.03;1.50;;;7.80;99.90;;;;;;5459836;26;20441;-89
2024/04/17 04:30:42;;;;;;;;;;;;;;;;;;;;;
2024/04/17 04:33:29;;;;;;;4.22;1.67;;;7.80;99.90;;;;;;5473357;26;19991;-92
2024/04/17 04:39:21;;;;;;;1.77;1.17;;;7.90;99.90;;;;;;5388051;26;19987;-94
2024/04/17 04:50:54;;;;;;;2.00;1.13;;;8.00;99.90;;;;;;5243182;27;20010;-95
2024/04/17 04:53:42;;;;;;;4.00;1.50;;;8.00;99.90;;;;;;5272852;27;20042;-90
2024/04/17 04:56:16;;;;;;;3.72;1.33;;;8.10;99.90;;;;;;5278626;27;19990;-90
2024/04/17 04:58:44;;;;;;;4.03;1.40;;;8.10;99.90;;;;;;5300702;26;20030;-91
2024/04/17 05:01:24;;;;;;;3.80;1.55;;;8.10;99.90;;;;;;5303087;27;19999;-92
2024/04/17 05:03:56;;;;;;;2.00;1.50;;;8.20;99.90;;;;;;5274221;27;19998;-92
2024/04/17 05:06:38;;;;;;;2.78;1.40;;;8.20;99.90;;;;;;5254602;27;19998;-91
2024/04/17 05:09:14;;;;;;;1.67;1.20;;;8.20;99.90;;;;;;5271388;27;19995;-92
2024/04/17 05:11:49;;;;;;;2.65;1.30;;;8.20;99.90;;;;;;5222154;27;20011;-90
2024/04/17 05:14:23;;;;;;;3.47;1.45;;;8.20;99.90;;;;;;5249429;27;20010;-91
2024/04/17 05:16:48;;;;;;;2.75;1.55;;;8.20;99.90;;;;;;5193125;27;20018;-91
2024/04/17 05:19:22;;;;;;;3.30;1.70;;;8.20;99.90;;;;;;5260828;27;19998;-92
2024/04/17 05:21:55;;;;;;;5.10;1.80;;;8.20;99.90;;;;;;5225103;27;20006;-92
2024/04/17 05:24:26;;;;;;;3.45;1.48;;;8.20;99.90;;;;;;5232686;27;20453;-91
2024/04/17 05:26:55;;;;;;;4.40;1.80;;;8.10;99.90;;;;;;5291552;27;19994;-91
2024/04/17 05:29:26;;;;;;;5.38;1.80;;;8.20;99.90;;;;;;5288532;27;20013;-90
2024/04/17 05:31:54;;;;;;;;;;;8.20;99.90;;;;;;5292576;27;20013;-91
2024/04/17 05:34:29;;;;;;;3.65;1.83;;;8.20;99.90;;;;;;5261118;27;19934;-92
2024/04/17 05:36:57;;;;;;;3.20;1.40;;;8.10;99.90;;;;;;5293765;27;20038;-91
2024/04/17 05:39:26;;;;;;;2.90;1.40;;;8.00;99.90;;;;;;5290447;27;19994;-93
2024/04/17 05:41:54;;;;;;;2.38;1.30;;;8.00;99.90;;;;;;5225578;27;20010;-90
2024/04/17 05:44:20;;;;;;;2.60;1.00;;;8.00;99.90;;;;;;5288724;27;19994;-89
2024/04/17 05:46:59;;;;;;;;;;;;;;;;;;;;;
2024/04/17 05:49:28;;;;;;;2.40;0.80;;;8.00;99.90;;;;;;5287069;27;19994;-92
2024/04/17 05:52:09;;;;;;;;;;;;;;;;;;;;;
2024/04/17 05:54:38;;;;;;;1.77;0.70;;;8.00;99.90;;;;;;5293177;27;20012;-90
2024/04/17 05:57:06;;;;;;;2.75;0.60;;;8.00;99.90;;;;;;5310741;26;20006;-92
2024/04/17 05:59:37;;;;;;;2.58;0.82;;;8.00;99.90;;;;;;5316121;27;19993;-91
2024/04/17 06:02:03;;;;;;;;;;;7.90;99.90;;;;;;5316011;27;20009;-93
2024/04/17 06:04:42;;;;;;;1.23;0.50;;;7.90;99.90;;;;;;5287658;27;19954;-91
2024/04/17 06:07:10;;;;;;;0.70;0.40;;;7.90;99.90;;;;;;5283639;27;20006;-91
2024/04/17 06:09:48;;;;;;;;;;;;;;;;;;;;;
2024/04/17 06:12:22;;;;;;;2.05;0.70;;;8.00;99.90;;;;;;5317279;27;20004;-92
2024/04/17 06:14:51;;;;;;;1.95;0.63;;;8.10;99.90;;;;;;5288896;27;20381;-91
2024/04/17 06:17:23;;;;;;;1.17;0.50;;;8.10;99.90;;;;;;5284056;27;20012;-92
2024/04/17 06:19:49;;;;;;;1.40;0.70;;;8.20;99.90;;;;;;5293019;27;20072;-92
2024/04/17 06:22:22;;;;;;;1.10;0.50;;;8.20;99.90;;;;;;5262809;27;20023;-92
2024/04/17 06:24:54;;;;;;;1.50;0.80;;;8.30;99.90;;;;;;5302084;26;20041;-90
2024/04/17 06:27:24;;;;;;;1.63;0.65;;;8.30;99.90;;;;;;5315413;26;20102;-91
2024/04/17 06:29:53;;;;;;;1.75;0.73;;;8.30;99.90;;;;;;5307035;26;20010;-91
2024/04/17 06:32:42;;;;;;;0.43;0.40;;;8.30;99.90;;;;;;5323186;27;20074;-90
2024/04/17 06:35:16;;;;;;;2.05;0.50;;;8.30;99.90;;;;;;5287471;27;19993;-91
2024/04/17 06:37:42;;;;;;;0.65;0.32;;;8.30;99.90;;;;;;5289227;27;20349;-91
2024/04/17 06:40:09;;;;;;;1.65;0.50;;;8.30;99.90;;;;;;5263719;27;20022;-92
2024/04/17 06:42:35;;;;;;;0.60;0.30;;;8.30;99.90;;;;;;5312173;27;20006;-92
2024/04/17 06:45:06;;;;;;;3.30;1.08;;;8.30;99.90;;;;;;5287415;27;19998;-90
2024/04/17 06:47:32;;;;;;;1.05;0.43;;;8.30;99.90;;;;;;5286886;27;20001;-91
2024/04/17 06:50:25;;;;;;;1.40;0.70;;;8.30;99.90;;;;;;5258924;27;20021;-91
2024/04/17 06:53:18;;;;;;;2.05;0.75;;;8.40;99.90;;;;;;5289466;27;20009;-89
2024/04/17 06:55:54;;;;;;;1.67;0.50;;;8.40;99.90;;;;;;5257016;27;20001;-93
2024/04/17 06:58:26;;;;;;;0.98;0.40;;;8.40;99.90;;;;;;5288944;27;20331;-91
2024/04/17 07:01:03;;;;;;;;;;;;;;;;;;;;;
2024/04/17 07:03:36;;;;;;;1.40;0.65;;;8.50;99.90;;;;;;5321879;27;19997;-93
2024/04/17 07:06:05;;;;;;;0.90;0.60;;;8.50;99.90;;;;;;5317825;27;20008;-91
2024/04/17 07:08:44;;;;;;;;;;;;;;;;;;;;;
2024/04/17 07:11:12;;;;;;;1.67;0.85;;;8.60;99.90;;;;;;5290387;27;20000;-90
2024/04/17 07:13:48;;;;;;;3.42;1.13;;;8.70;99.90;;;;;;5287490;27;20001;-91
2024/04/17 07:16:19;;;;;;;2.60;0.98;;;8.70;99.90;;;;;;5288131;27;19993;-91
2024/04/17 07:18:49;;;;;;;2.37;1.13;;;8.80;99.90;;;;;;5286581;27;19998;-91
2024/04/17 07:21:24;;;;;;;3.17;1.20;;;8.90;99.90;;;;;;5313641;27;20232;-90
2024/04/17 07:24:01;;;;;;;4.35;1.63;;;8.90;99.90;;;;;;5286917;27;20216;-91
2024/04/17 07:26:27;;;;;;;2.95;1.10;;;9.10;99.90;;;;;;5279672;27;20026;-91
2024/04/17 07:28:56;;;;;;;4.72;1.30;;;9.10;99.90;;;;;;5265385;27;20021;-90
2024/04/17 07:31:22;;;;;;;6.53;1.65;;;9.10;99.90;;;;;;5315642;27;20001;-91
2024/04/17 07:34:04;;;;;;;3.65;1.40;;;9.20;99.90;;;;;;5285689;27;20008;-91
2024/04/17 07:36:50;;;;;;;3.67;1.50;;;9.20;99.90;;;;;;5315994;27;19998;-91
2024/04/17 07:39:33;;;;;;;2.63;1.20;;;9.20;99.90;;;;;;5313402;27;19998;-90
2024/04/17 07:41:59;;;;;;;3.65;1.67;;;9.30;99.90;;;;;;5314127;27;20025;-92
2024/04/17 07:44:37;;;;;;;4.05;1.13;;;9.30;99.90;;;;;;5315762;27;20075;-92
2024/04/17 07:47:12;;;;;;;2.75;1.45;;;9.40;99.90;;;;;;5317797;27;20009;-91
2024/04/17 07:49:59;;;;;;;3.50;1.50;;;9.50;99.90;;;;;;5261112;27;20106;-91
2024/04/17 07:52:28;;;;;;;3.17;1.50;;;9.50;99.90;;;;;;5288637;26;20001;-93
2024/04/17 07:55:03;;;;;;;5.85;1.40;;;9.60;99.90;;;;;;5308957;26;20002;-91
2024/04/17 07:57:37;;;;;;;4.47;1.30;;;9.70;99.90;;;;;;5337076;26;19997;-91
2024/04/17 08:00:09;;;;;;;4.18;1.38;;;9.70;99.90;;;;;;5293609;27;20002;-92
2024/04/17 08:02:35;;;;;;;7.88;1.40;;;9.80;99.90;;;;;;5254534;27;19998;-94
2024/04/17 08:05:07;;;;;;;5.72;1.75;;;9.70;99.90;;;;;;5254521;27;20312;-90
2024/04/17 08:07:37;;;;;;;7.30;2.38;;;9.70;99.90;;;;;;5255157;27;19998;-90
2024/04/17 08:10:26;;;;;;;3.97;1.60;;;9.60;99.90;;;;;;5290075;27;20002;-90
2024/04/17 08:12:53;;;;;;;5.50;1.17;;;9.60;99.90;;;;;;5287488;27;20000;-91
2024/04/17 08:15:22;;;;;;;5.30;1.40;;;9.60;99.90;;;;;;5316458;27;20005;-91
2024/04/17 08:17:48;;;;;;;5.78;1.30;;;9.70;99.90;;;;;;5317685;27;19994;-90
2024/04/17 08:20:24;;;;;;;5.95;1.50;;;9.80;99.90;;;;;;5315492;27;20010;-91
2024/04/17 08:22:56;;;;;;;6.10;1.75;;;9.90;99.90;;;;;;5316477;27;20006;-89
2024/04/17 08:25:24;;;;;;;6.90;1.77;;;10.10;99.90;;;;;;5315775;27;20008;-91
2024/04/17 08:27:50;;;;;;;4.50;1.67;;;10.10;99.90;;;;;;5287650;27;19997;-91
2024/04/17 08:30:22;;;;;;;6.22;1.60;;;10.20;99.90;;;;;;5315600;27;20010;-93
2024/04/17 08:32:54;;;;;;;5.90;1.60;;;10.30;99.90;;;;;;5309918;27;20002;-91
2024/04/17 08:35:29;;;;;;;7.38;1.80;;;10.30;99.90;;;;;;5276282;27;20446;-90
2024/04/17 08:37:57;;;;;;;8.52;1.42;;;10.30;99.90;;;;;;5287657;27;19997;-90
2024/04/17 08:40:28;;;;;;;4.88;1.13;;;10.40;99.90;;;;;;5287183;27;20100;-91
2024/04/17 08:42:55;;;;;;;6.50;1.40;;;10.40;99.90;;;;;;5237776;27;19998;-90
2024/04/17 08:45:44;;;;;;;6.20;1.60;;;10.50;99.90;;;;;;5253692;27;19994;-89
2024/04/17 08:48:10;;;;;;;5.53;1.38;;;10.60;99.90;;;;;;5281551;27;19995;-90
2024/04/17 08:50:40;;;;;;;4.47;1.23;;;10.70;99.90;;;;;;5253383;27;20520;-90
2024/04/17 08:53:06;;;;;;;4.57;1.58;;;10.80;99.90;;;;;;5273322;27;20013;-91
2024/04/17 08:55:38;;;;;;;4.90;1.27;;;10.80;99.90;;;;;;5315729;27;20067;-90
2024/04/17 08:58:04;;;;;;;4.03;1.20;;;10.80;99.40;;;;;;5314788;27;20004;-88
2024/04/17 09:00:41;;;;;;;4.55;1.10;;;10.80;98.90;;;;;;5287213;27;19997;-89
2024/04/17 09:03:16;;;;;;;6.32;1.20;;;10.80;98.80;;;;;;5308969;27;20003;-92
2024/04/17 09:05:48;;;;;;;3.95;1.00;;;10.70;98.40;;;;;;5253254;27;20026;-88
2024/04/17 09:08:21;;;;;;;3.17;0.88;;;10.70;98.30;;;;;;5283422;27;20010;-90
2024/04/17 09:10:47;;;;;;;4.65;1.27;;;10.70;98.40;;;;;;5253244;27;20002;-90
2024/04/17 09:13:16;;;;;;;5.82;1.30;;;10.70;98.20;;;;;;5293143;27;20033;-88
2024/04/17 09:15:45;;;;;;;3.60;1.10;;;10.60;97.90;;;;;;5287046;27;20009;-89
2024/04/17 09:18:11;;;;;;;3.78;1.13;;;10.60;97.80;;;;;;5317937;27;19998;-87
2024/04/17 09:20:42;;;;;;;5.82;0.93;;;10.60;97.90;;;;;;5323691;27;20008;-90
2024/04/17 09:23:09;;;;;;;5.40;1.55;;;10.60;98.00;;;;;;5336431;26;19994;-87
2024/04/17 09:25:44;;;;;;;5.18;1.52;;;10.70;97.90;;;;;;5336499;26;20002;-89
2024/04/17 09:28:12;;;;;;;4.55;1.08;;;10.70;97.80;;;;;;5333412;26;20045;-88
2024/04/17 09:30:42;;;;;;;4.93;1.10;;;10.60;97.50;;;;;;5291647;27;19993;-90
2024/04/17 09:33:17;;;;;;;5.00;1.67;;;10.60;97.70;;;;;;5314223;27;20008;-87
2024/04/17 09:35:43;;;;;;;2.15;0.90;;;10.80;97.90;;;;;;5259756;27;20006;-88
2024/04/17 09:38:14;;;;;;;4.65;1.17;;;10.90;98.00;;;;;;5284745;27;20327;-88
2024/04/17 09:40:49;;;;;;;3.28;0.82;;;11.00;97.70;;;;;;5287240;27;20002;-89
2024/04/17 09:43:29;;;;;;;3.03;0.98;;;11.00;97.70;;;;;;5257490;27;20021;-87
2024/04/17 09:46:05;;;;;;;3.70;1.40;;;11.10;97.80;;;;;;5251744;27;20013;-90
2024/04/17 09:48:36;;;;;;;4.40;1.23;;;11.20;97.90;;;;;;5323591;27;20282;-91
2024/04/17 09:51:06;;;;;;;2.03;1.10;;;11.20;98.00;;;;;;5295724;27;19993;-91
2024/04/17 09:53:43;;;;;;;2.03;0.80;;;11.20;98.00;;;;;;5321000;27;20001;-92
2024/04/17 09:56:21;;;;;;;4.90;1.10;;;11.00;98.10;;;;;;5288056;27;20005;-91
2024/04/17 09:59:10;;;;;;;3.03;0.85;;;10.90;98.30;;;;;;5285582;26;20003;-92
2024/04/17 10:01:39;;;;;;;2.25;0.90;;;10.80;98.50;;;;;;5282471;27;19994;-90
2024/04/17 10:04:08;;;;;;;3.38;0.75;;;10.70;98.60;;;;;;5285139;27;20422;-90
2024/04/17 10:06:37;;;;;;;2.97;1.02;;;10.60;98.70;;;;;;5293114;27;19998;-90
2024/04/17 10:09:06;;;;;;;2.35;0.80;;;10.50;98.70;;;;;;5253545;27;20441;-91
2024/04/17 10:11:33;;;;;;;2.28;0.95;;;10.40;98.80;;;;;;5304908;27;20132;-92
2024/04/17 10:14:02;;;;;;;4.28;0.90;;;10.30;98.70;;;;;;5319230;27;20017;-91
2024/04/17 10:16:34;;;;;;;2.63;0.85;;;10.20;98.90;;;;;;5266986;27;20004;-90
2024/04/17 10:19:09;;;;;;;1.92;0.85;;;10.10;98.90;;;;;;5290712;27;19997;-90
2024/04/17 10:21:41;;;;;;;2.53;0.70;;;10.10;99.00;;;;;;5316569;27;19998;-93
2024/04/17 10:24:09;;;;;;;2.33;0.80;;;10.00;99.00;;;;;;5317386;27;19994;-92
2024/04/17 10:27:15;;;;;;;2.88;0.80;;;9.90;99.10;;;;;;5320597;27;19997;-91
2024/04/17 10:29:47;;;;;;;2.53;1.20;;;9.70;99.40;;;;;;5255415;27;20012;-91
2024/04/17 10:32:23;;;;;;;3.25;0.80;;;9.60;99.30;;;;;;5315609;27;20003;-91
2024/04/17 10:34:52;;;;;;;1.92;0.93;;;9.60;99.30;;;;;;5289448;27;20004;-93
2024/04/17 10:37:26;;;;;;;2.63;0.80;;;9.40;99.30;;;;;;5317065;27;20013;-92
2024/04/17 10:39:57;;;;;;;1.98;0.68;;;9.20;99.30;;;;;;5315018;27;20009;-91
2024/04/17 10:42:26;;;;;;;1.52;0.63;;;9.10;99.70;;;;;;5285996;27;20001;-89
2024/04/17 10:44:55;;;;;;;1.65;0.73;;;9.00;99.90;;;;;;5315572;27;20002;-92
2024/04/17 10:47:36;;;;;;;2.90;0.80;;;9.10;99.90;;;;;;5317978;27;19997;-92
2024/04/17 10:50:45;;;;;;;0.52;0.52;;;9.30;99.90;;;;;;5291296;26;19993;-93
2024/04/17 10:53:11;;;;;;;0.60;0.50;;;9.50;99.90;;;;;;5363636;26;20005;-90
2024/04/17 10:55:39;;;;;;;1.48;0.50;;;9.60;99.90;;;;;;5363827;26;19996;-91
2024/04/17 10:58:06;;;;;;;1.90;0.52;;;9.80;99.90;;;;;;5363791;26;20004;-92
2024/04/17 11:00:32;;;;;;;0.80;0.50;;;9.90;99.90;;;;;;5350145;26;20507;-90
2024/04/17 11:03:08;;;;;;;0.60;0.40;;;10.00;99.80;;;;;;5336878;26;20006;-92
2024/04/17 11:05:47;;;;;;;;;;;;;;;;;;;;;
2024/04/17 11:08:15;;;;;;;1.60;0.50;;;10.30;99.90;;;;;;5281793;27;20006;-91
2024/04/17 11:10:41;;;;;;;0.55;0.32;;;10.50;99.90;;;;;;5252182;27;19998;-91
2024/04/17 11:13:24;;;;;;;0.75;0.40;;;10.60;99.70;;;;;;5290876;27;20464;-88
2024/04/17 11:15:53;;;;;;;0.95;0.30;;;10.70;99.30;;;;;;5342660;26;20444;-91
2024/04/17 11:18:34;;;;;;;;;;;;;;;;;;;;;
2024/04/17 11:21:02;;;;;;;0.82;0.38;;;10.70;99.20;;;;;;5311226;27;20009;-90
2024/04/17 11:23:40;;;;;;;2.92;0.40;;;10.70;99.20;;;;;;5342472;26;19989;-90
2024/04/17 11:26:06;;;;;;;1.70;0.43;;;10.80;99.10;;;;;;5315176;26;19997;-90
2024/04/17 11:28:46;;;;;;;0.82;0.35;;;10.90;99.00;;;;;;5342676;26;20365;-90
2024/04/17 11:31:15;;;;;;;1.58;0.65;;;10.90;98.90;;;;;;5340358;26;20013;-90
2024/04/17 11:33:46;;;;;;;1.70;0.40;;;11.00;99.00;;;;;;5315229;26;19994;-91
2024/04/17 11:36:15;;;;;;;1.27;0.55;;;11.00;99.10;;;;;;5314050;27;19993;-89
2024/04/17 11:38:45;;;;;;;3.65;0.80;;;11.10;99.10;;;;;;5312081;27;20520;-90
2024/04/17 11:41:17;;;;;;;0.88;0.40;;;11.20;98.90;;;;;;5313382;27;20009;-89
2024/04/17 11:43:46;;;;;;;0.80;0.38;;;11.30;99.00;;;;;;5315854;26;20006;-89
2024/04/17 11:46:17;;;;;;;2.08;0.95;;;11.50;99.00;;;;;;5318767;26;20018;-90
2024/04/17 11:48:46;;;;;;;0.73;0.47;;;11.60;99.00;;;;;;5348224;26;20021;-89
2024/04/17 11:51:17;;;;;;;2.20;0.52;;;11.70;98.80;;;;;;5317347;26;19994;-89
2024/04/17 11:53:45;;;;;;;;;;;11.70;98.70;;;;;;5342799;26;20033;-89
2024/04/17 11:56:11;;;;;;;1.00;0.70;;;11.80;98.60;;;;;;5317058;26;19933;-90
2024/04/17 11:58:37;;;;;;;1.60;0.60;;;11.80;98.50;;;;;;5345289;26;20010;-88
2024/04/17 12:01:03;;;;;;;1.50;0.43;;;11.80;98.50;;;;;;5322429;26;20004;-88
2024/04/17 12:03:37;;;;;;;1.70;0.50;;;11.90;98.40;;;;;;5320967;26;20017;-89
2024/04/17 12:06:09;;;;;;;0.63;0.40;;;12.00;98.30;;;;;;5315323;26;20005;-92
2024/04/17 12:08:35;;;;;;;1.65;0.70;;;12.00;98.30;;;;;;5286810;27;19994;-88
2024/04/17 12:11:03;;;;;;;1.00;0.45;;;12.10;98.10;;;;;;5342122;26;19998;-88
2024/04/17 12:13:29;;;;;;;0.82;0.40;;;12.10;97.80;;;;;;5342538;26;19993;-90
2024/04/17 12:15:55;;;;;;;0.50;0.30;;;11.80;97.50;;;;;;5314306;27;20004;-88
2024/04/17 12:18:21;;;;;;;3.08;0.25;;;11.60;97.50;;;;;;5317686;27;19996;-88
2024/04/17 12:20:46;;;;;;;0.28;0.20;;;11.30;97.70;;;;;;5316694;27;19998;-89
2024/04/17 12:23:18;;;;;;;1.98;0.43;;;11.10;97.50;;;;;;5358083;26;20002;-89
2024/04/17 12:28:29;;;;;;;0.38;0.20;;;10.60;97.80;;;;;;5334647;27;20033;-92
2024/04/17 12:30:55;;;;;;;1.60;0.45;;;10.30;97.80;;;;;;5332219;27;20013;-90
2024/04/17 12:33:24;;;;;;;1.13;0.50;;;10.00;97.90;;;;;;5352027;26;19998;-92
2024/04/17 12:35:54;;;;;;;0.40;0.28;;;9.80;98.10;;;;;;5318751;26;20405;-92
2024/04/17 12:38:22;;;;;;;0.60;0.35;;;9.60;98.30;;;;;;5345141;26;19998;-91
2024/04/17 12:40:51;;;;;;;0.30;0.30;;;9.40;98.50;;;;;;5345265;26;19993;-93
2024/04/17 12:43:25;;;;;;;0.32;0.30;;;9.30;98.60;;;;;;5344433;26;20085;-93
2024/04/17 12:45:56;;;;;;;0.20;0.10;;;9.10;98.60;;;;;;5316223;27;19998;-92
2024/04/17 12:48:22;;;;;;;;;;;8.90;98.80;;;;;;5347366;26;20018;-92
2024/04/17 12:50:48;;;;;;;1.05;0.40;;;8.60;98.80;;;;;;5321706;27;19947;-92
2024/04/17 12:53:23;;;;;;;0.55;0.43;;;8.30;99.10;;;;;;5325616;27;19993;-93
2024/04/17 12:56:09;;;;;;;0.40;0.20;;;8.10;99.50;;;;;;5330201;27;20012;-93
2024/04/17 12:58:37;;;;;;;2.38;0.30;;;8.00;99.70;;;;;;5325779;27;19993;-93
2024/04/17 13:01:18;;;;;;;0.98;0.28;;;7.80;99.90;;;;;;5301571;27;19998;-89
2024/04/17 13:03:51;;;;;;;1.67;0.30;;;7.60;99.90;;;;;;5333154;26;20063;-94
2024/04/17 13:06:37;;;;;;;0.38;0.30;;;7.50;99.90;;;;;;5303835;27;19993;-94
2024/04/17 13:09:16;;;;;;;0.63;0.30;;;7.30;99.90;;;;;;5304587;27;20021;-90
2024/04/17 13:11:59;;;;;;;0.50;0.30;;;7.20;99.90;;;;;;5306562;27;19998;-94
2024/04/17 13:14:37;;;;;;;0.70;0.30;;;7.20;99.90;;;;;;5297042;26;19997;-93
2024/04/17 13:17:23;;;;;;;0.40;0.30;;;7.20;99.90;;;;;;5321277;27;20045;-94
2024/04/17 13:19:51;;;;;;;0.25;0.22;;;7.30;99.90;;;;;;5295131;27;20021;-92
2024/04/17 13:22:22;;;;;;;0.65;0.38;;;7.40;99.90;;;;;;5263885;27;19994;-94
2024/04/17 13:24:53;;;;;;;0.95;0.50;;;7.50;99.90;;;;;;5290768;27;20513;-92
2024/04/17 13:27:31;;;;;;;1.00;0.40;;;7.50;99.90;;;;;;5288185;27;19993;-94
2024/04/17 13:29:58;;;;;;;1.80;0.63;;;7.60;99.90;;;;;;5317641;27;19994;-94
2024/04/17 13:32:26;;;;;;;0.80;0.40;;;7.70;99.90;;;;;;5318152;27;19993;-93
2024/04/17 13:35:17;;;;;;;1.08;0.50;;;7.70;99.90;;;;;;5317359;27;20503;-92
2024/04/17 13:37:50;;;;;;;0.30;0.30;;;7.70;99.90;;;;;;5319443;27;19989;-94
2024/04/17 13:40:17;;;;;;;0.30;0.30;;;7.90;99.90;;;;;;5289873;27;19998;-94